Lockesburg, Arkansas
Current Conditions -  °F | °C
As of 12:53 PM on Friday 31 Oct 2014 (Local Time) from KDEQ Reporting Station
Clear Clear  
Wind Chill: 64°   Ceiling: Unl
Heat Index: 64°   Visibility: 10mi
Dew Point: 44°   Wind: 13mph
Humidity: 48%   Direction: 10°N
Pressure: 30.25"   Gusts: 24mph
Location:  33.97°N, 94.17°W
Report Text: KDEQ 311753Z AUTO 01011G21KT 10SM CLR 18/07 A3025 RMK AO2 SLP242 T01780067 10178 20033 50009
Loading
Personal Weather Stations






























Interactive Weather Map
Tropical Storm Tracking
New forecast layout! Learn more

10-Day Weather Forecast

Advertisements
Track Severe Weather on mobile